createdAt,value
2018-03-20T00:00:57.901Z,70.7
2018-03-20T00:01:59.648Z,71.4
2018-03-20T00:03:01.449Z,71.2
2018-03-20T00:04:03.250Z,70.7
2018-03-20T00:05:05.019Z,70.5
2018-03-20T00:06:06.764Z,71.4
2018-03-20T00:07:08.463Z,71.2
2018-03-20T00:08:10.232Z,71.4
2018-03-20T00:09:11.989Z,71.6
2018-03-20T00:10:13.856Z,72.1
2018-03-20T00:11:15.609Z,71.7
2018-03-20T00:12:17.403Z,71.8
2018-03-20T00:13:19.042Z,71.6
2018-03-20T00:14:20.788Z,71.9
2018-03-20T00:15:22.646Z,71.6
2018-03-20T00:16:24.568Z,71.4
2018-03-20T00:17:26.516Z,71.3
2018-03-20T00:18:28.317Z,70.8
2018-03-20T00:19:29.928Z,70.4
2018-03-20T00:20:31.686Z,71.3
2018-03-20T00:21:33.423Z,71.3
2018-03-20T00:22:34.947Z,71.3
2018-03-20T00:23:36.787Z,71.7
2018-03-20T00:24:38.385Z,71.6
2018-03-20T00:25:40.147Z,71.7
2018-03-20T00:26:41.799Z,71.7
2018-03-20T00:27:43.448Z,72.3
2018-03-20T00:28:45.119Z,72.7
2018-03-20T00:29:46.763Z,73.1
2018-03-20T00:30:48.581Z,73.9
2018-03-20T00:31:50.353Z,73.4
2018-03-20T00:32:52.158Z,74.2
2018-03-20T00:33:53.842Z,73.8
2018-03-20T00:34:55.624Z,75.0
2018-03-20T00:35:57.408Z,75.1
2018-03-20T00:36:59.132Z,75.8
2018-03-20T00:38:00.974Z,76.6
2018-03-20T00:39:02.832Z,76.6
2018-03-20T00:40:04.598Z,76.5
2018-03-20T00:41:06.269Z,77.3
2018-03-20T00:42:07.902Z,76.8
2018-03-20T00:43:09.825Z,77.3
2018-03-20T00:44:11.605Z,77.1
2018-03-20T00:45:13.327Z,76.7
2018-03-20T00:46:15.107Z,77.1
2018-03-20T00:47:16.953Z,76.9
2018-03-20T00:48:18.745Z,77.2
2018-03-20T00:49:20.435Z,77.3
2018-03-20T00:50:22.212Z,77.1
2018-03-20T00:51:24.082Z,77.1
2018-03-20T00:52:25.821Z,76.9
2018-03-20T00:53:27.663Z,76.5
2018-03-20T00:54:29.444Z,76.3
2018-03-20T00:55:31.270Z,76.2
2018-03-20T00:56:33.082Z,76.5
2018-03-20T00:57:34.862Z,76.5
2018-03-20T00:58:36.599Z,75.6
2018-03-20T00:59:38.293Z,75.3
2018-03-20T01:00:40.116Z,75.2
2018-03-20T01:01:41.855Z,75.1
2018-03-20T01:02:43.664Z,75.0
2018-03-20T01:03:45.423Z,74.7
2018-03-20T01:04:47.275Z,75.0
2018-03-20T01:05:49.042Z,74.7
2018-03-20T01:06:50.660Z,74.4
2018-03-20T01:07:52.371Z,74.1
2018-03-20T01:08:54.177Z,74.0
2018-03-20T01:09:56.107Z,73.5
2018-03-20T01:10:57.880Z,73.9
2018-03-20T01:11:59.518Z,73.9
2018-03-20T01:13:01.408Z,74.7
2018-03-20T01:14:03.187Z,75.3
2018-03-20T01:15:04.950Z,75.4
2018-03-20T01:16:06.754Z,75.2
2018-03-20T01:17:08.508Z,75.8
2018-03-20T01:18:10.371Z,75.1
2018-03-20T01:19:11.955Z,75.4
2018-03-20T01:20:13.772Z,75.7
2018-03-20T01:21:15.662Z,75.2
2018-03-20T01:22:17.310Z,75.2
2018-03-20T01:23:19.100Z,75.1
2018-03-20T01:24:20.902Z,75.6
2018-03-20T01:25:23.336Z,75.2
2018-03-20T01:26:25.222Z,74.8
2018-03-20T01:27:26.865Z,75.0
2018-03-20T01:28:28.444Z,74.6
2018-03-20T01:29:30.308Z,74.1
2018-03-20T01:30:32.111Z,74.4
2018-03-20T01:31:33.815Z,74.4
2018-03-20T01:32:35.593Z,74.3
2018-03-20T01:33:37.370Z,74.1
2018-03-20T01:34:39.133Z,74.9
2018-03-20T01:35:40.850Z,74.8
2018-03-20T01:36:42.599Z,74.9
2018-03-20T01:37:44.282Z,75.0
2018-03-20T01:38:46.002Z,75.1
2018-03-20T01:39:47.824Z,75.0
2018-03-20T01:40:49.623Z,75.2
2018-03-20T01:41:51.292Z,75.2
2018-03-20T01:42:53.189Z,75.1
2018-03-20T01:43:54.990Z,74.9
2018-03-20T01:44:56.842Z,75.1
2018-03-20T01:45:58.632Z,74.8
2018-03-20T01:47:00.436Z,74.8
2018-03-20T01:48:02.253Z,74.7
2018-03-20T01:49:03.876Z,74.8
2018-03-20T01:50:05.671Z,75.0
2018-03-20T01:51:07.414Z,75.3
2018-03-20T01:52:09.317Z,75.1
2018-03-20T01:53:11.174Z,75.7
2018-03-20T01:54:12.940Z,76.3
2018-03-20T01:55:14.532Z,76.1
2018-03-20T01:56:16.233Z,76.7
2018-03-20T01:57:17.845Z,76.8
2018-03-20T01:58:19.679Z,76.7
2018-03-20T01:59:21.487Z,76.7
2018-03-20T02:00:23.221Z,76.8
2018-03-20T02:01:25.013Z,76.8
2018-03-20T02:02:26.858Z,76.6
2018-03-20T02:03:28.577Z,76.8
2018-03-20T02:04:30.526Z,76.7
2018-03-20T02:05:32.413Z,76.3
2018-03-20T02:06:34.077Z,76.5
2018-03-20T02:07:35.963Z,76.3
2018-03-20T02:08:37.843Z,75.6
2018-03-20T02:09:39.567Z,75.3
2018-03-20T02:10:41.482Z,74.9
2018-03-20T02:11:43.260Z,74.3
2018-03-20T02:12:44.917Z,73.8
2018-03-20T02:13:46.508Z,73.1
2018-03-20T02:14:48.211Z,73.0
2018-03-20T02:15:49.971Z,73.1
2018-03-20T02:16:51.783Z,72.3
2018-03-20T02:17:53.425Z,72.1
2018-03-20T02:18:55.304Z,72.1
2018-03-20T02:19:57.071Z,72.0
2018-03-20T02:20:58.803Z,71.8
2018-03-20T02:22:00.588Z,71.4
2018-03-20T02:23:02.286Z,71.7
2018-03-20T02:24:04.152Z,71.7
2018-03-20T02:25:05.891Z,71.5
2018-03-20T02:26:07.572Z,71.6
2018-03-20T02:27:09.370Z,71.7
2018-03-20T02:28:11.146Z,71.9
2018-03-20T02:29:12.978Z,71.8
2018-03-20T02:30:14.799Z,71.7
2018-03-20T02:31:16.548Z,72.1
2018-03-20T02:32:18.242Z,72.1
2018-03-20T02:33:19.971Z,72.6
2018-03-20T02:34:21.769Z,72.4
2018-03-20T02:35:23.457Z,72.2
2018-03-20T02:36:25.190Z,72.4
2018-03-20T02:37:26.807Z,73.1
2018-03-20T02:38:28.651Z,72.9
2018-03-20T02:39:30.386Z,73.1
2018-03-20T02:40:32.234Z,73.1
2018-03-20T02:41:33.904Z,73.1
2018-03-20T02:42:35.596Z,73.6
2018-03-20T02:43:37.242Z,73.5
2018-03-20T02:44:38.985Z,74.1
2018-03-20T02:45:40.782Z,74.2
2018-03-20T02:46:42.629Z,73.6
2018-03-20T02:47:44.390Z,72.8
2018-03-20T02:48:46.179Z,72.8
2018-03-20T02:49:47.957Z,72.3
2018-03-20T02:50:49.609Z,71.9
2018-03-20T02:51:51.560Z,71.6
2018-03-20T02:52:55.024Z,71.4
2018-03-20T02:53:56.839Z,72.1
2018-03-20T02:54:58.730Z,71.8
2018-03-20T02:56:00.437Z,71.6
2018-03-20T02:57:02.338Z,71.2
2018-03-20T02:58:04.201Z,70.7
2018-03-20T02:59:05.849Z,70.1
2018-03-20T03:00:07.576Z,70.3
2018-03-20T03:01:09.232Z,70.1
2018-03-20T03:02:11.043Z,70.5
2018-03-20T03:03:12.911Z,70.5
2018-03-20T03:04:14.858Z,69.6
2018-03-20T03:05:16.544Z,69.6
2018-03-20T03:06:18.397Z,69.9
2018-03-20T03:07:20.022Z,69.5
2018-03-20T03:08:21.692Z,69.0
2018-03-20T03:09:23.619Z,68.7
2018-03-20T03:10:25.366Z,68.9
2018-03-20T03:11:27.219Z,68.3
2018-03-20T03:12:28.814Z,68.5
2018-03-20T03:13:30.641Z,69.0
2018-03-20T03:14:32.400Z,68.8
2018-03-20T03:15:34.300Z,69.4
2018-03-20T03:16:36.019Z,69.6
2018-03-20T03:17:37.675Z,69.9
2018-03-20T03:18:39.609Z,70.1
2018-03-20T03:19:41.494Z,69.9
2018-03-20T03:20:43.268Z,69.6
2018-03-20T03:21:44.962Z,70.3
2018-03-20T03:22:46.723Z,69.6
2018-03-20T03:23:48.697Z,70.3
2018-03-20T03:24:50.330Z,70.2
2018-03-20T03:25:52.996Z,69.9
2018-03-20T03:26:54.852Z,70.2
2018-03-20T03:27:56.539Z,69.6
2018-03-20T03:28:58.358Z,70.1
2018-03-20T03:30:00.029Z,69.8
2018-03-20T03:31:01.861Z,69.6
2018-03-20T03:32:03.859Z,69.4
2018-03-20T03:33:05.604Z,69.4
2018-03-20T03:34:07.467Z,69.4
2018-03-20T03:35:09.054Z,68.9
2018-03-20T03:36:10.948Z,68.5
2018-03-20T03:37:12.944Z,68.9
2018-03-20T03:38:14.773Z,68.5
2018-03-20T03:39:16.489Z,68.4
2018-03-20T03:40:18.424Z,67.6
2018-03-20T03:41:20.288Z,68.0
2018-03-20T03:42:22.119Z,67.8
2018-03-20T03:43:24.034Z,67.9
2018-03-20T03:44:25.596Z,67.8
2018-03-20T03:45:27.455Z,68.5
2018-03-20T03:46:29.196Z,68.4
2018-03-20T03:47:30.885Z,67.9
2018-03-20T03:48:32.780Z,68.6
2018-03-20T03:49:34.649Z,67.8
2018-03-20T03:50:36.281Z,67.8
2018-03-20T03:51:38.031Z,68.0
2018-03-20T03:52:39.882Z,68.5
2018-03-20T03:53:41.708Z,68.5
2018-03-20T03:54:43.553Z,68.9
2018-03-20T03:55:45.323Z,69.6
2018-03-20T03:56:47.136Z,70.1
2018-03-20T03:57:48.821Z,69.9
2018-03-20T03:58:50.481Z,70.5
2018-03-20T03:59:52.154Z,71.0
2018-03-20T04:00:54.090Z,71.3
2018-03-20T04:01:55.969Z,71.6
2018-03-20T04:02:57.711Z,71.7
2018-03-20T04:03:59.590Z,72.3
2018-03-20T04:05:01.467Z,72.2
2018-03-20T04:06:03.220Z,72.6
2018-03-20T04:07:04.971Z,73.1
2018-03-20T04:08:06.915Z,73.7
2018-03-20T04:09:08.723Z,73.4
2018-03-20T04:10:10.365Z,73.9
2018-03-20T04:11:12.208Z,74.8
2018-03-20T04:12:13.851Z,74.6
2018-03-20T04:13:15.618Z,75.5
2018-03-20T04:14:17.566Z,76.4
2018-03-20T04:15:19.277Z,77.0
2018-03-20T04:16:21.208Z,77.5
2018-03-20T04:17:23.107Z,78.5
2018-03-20T04:18:24.937Z,78.6
2018-03-20T04:19:26.775Z,79.7
2018-03-20T04:20:28.499Z,79.4
2018-03-20T04:21:30.375Z,79.5
2018-03-20T04:22:32.179Z,79.5
2018-03-20T04:23:34.082Z,79.8
2018-03-20T04:24:35.775Z,80.0
2018-03-20T04:25:37.609Z,80.2
2018-03-20T04:26:39.371Z,80.9
2018-03-20T04:27:40.967Z,80.8
2018-03-20T04:28:42.998Z,81.5
2018-03-20T04:29:44.957Z,81.6
2018-03-20T04:30:46.770Z,82.0
2018-03-20T04:31:48.718Z,82.1
2018-03-20T04:32:50.825Z,82.5
2018-03-20T04:33:52.650Z,83.2
2018-03-20T04:34:54.383Z,83.7
2018-03-20T04:35:56.187Z,83.8
2018-03-20T04:36:58.252Z,84.3
2018-03-20T04:37:59.991Z,84.3
2018-03-20T04:39:01.837Z,84.7
2018-03-20T04:40:03.488Z,84.7
2018-03-20T04:41:05.313Z,84.9
2018-03-20T04:42:06.917Z,85.2
2018-03-20T04:43:08.779Z,85.4
2018-03-20T04:44:10.331Z,85.9
2018-03-20T04:45:12.225Z,85.2
2018-03-20T04:46:14.065Z,84.9
2018-03-20T04:47:15.647Z,85.8
2018-03-20T04:48:17.310Z,85.6
2018-03-20T04:49:19.186Z,85.0
2018-03-20T04:50:20.931Z,85.0
2018-03-20T04:51:23.493Z,85.2
2018-03-20T04:52:25.388Z,85.1
2018-03-20T04:53:27.250Z,85.8
2018-03-20T04:54:28.827Z,85.4
2018-03-20T04:55:30.412Z,85.8
2018-03-20T04:56:32.360Z,85.6
2018-03-20T04:57:34.144Z,86.1
2018-03-20T04:58:35.993Z,85.9
2018-03-20T04:59:37.715Z,86.3
2018-03-20T05:00:39.979Z,86.9
2018-03-20T05:01:42.174Z,86.9
2018-03-20T05:02:43.874Z,87.1
2018-03-20T05:03:46.059Z,87.4
2018-03-20T05:04:47.622Z,87.9
2018-03-20T05:05:49.312Z,88.1
2018-03-20T05:06:51.153Z,88.5
2018-03-20T05:07:52.914Z,88.9
2018-03-20T05:08:54.657Z,88.8
2018-03-20T05:09:57.263Z,88.8
2018-03-20T05:10:59.297Z,89.3
2018-03-20T05:12:01.019Z,89.9
2018-03-20T05:13:03.301Z,89.8
2018-03-20T05:14:04.967Z,90.6
2018-03-20T05:15:06.930Z,91.0
2018-03-20T05:16:09.194Z,91.0
2018-03-20T05:17:11.351Z,91.1
2018-03-20T05:18:13.203Z,91.1
2018-03-20T05:19:14.850Z,90.9
2018-03-20T05:20:16.600Z,91.0
2018-03-20T05:21:18.838Z,91.1
2018-03-20T05:22:20.928Z,91.2
2018-03-20T05:23:22.565Z,90.9
2018-03-20T05:24:24.341Z,91.3
2018-03-20T05:25:26.300Z,91.7
2018-03-20T05:26:28.405Z,91.0
2018-03-20T05:27:30.157Z,91.3
2018-03-20T05:28:32.163Z,92.0
2018-03-20T05:29:34.132Z,91.4
2018-03-20T05:30:35.733Z,91.5
2018-03-20T05:31:37.628Z,92.0
2018-03-20T05:32:39.748Z,91.2
2018-03-20T05:33:41.760Z,91.4
2018-03-20T05:34:43.542Z,91.4
2018-03-20T05:35:45.429Z,91.9
2018-03-20T05:36:47.112Z,91.7
2018-03-20T05:37:48.985Z,92.3
2018-03-20T05:38:50.742Z,92.9
2018-03-20T05:39:52.364Z,93.3
2018-03-20T05:40:53.978Z,92.9
2018-03-20T05:41:55.803Z,93.8
2018-03-20T05:42:57.396Z,93.7
2018-03-20T05:43:59.190Z,93.6
2018-03-20T05:45:00.816Z,93.7
2018-03-20T05:46:02.863Z,93.5
2018-03-20T05:47:04.632Z,94.0
2018-03-20T05:48:06.249Z,93.2
2018-03-20T05:49:08.007Z,93.2
2018-03-20T05:50:09.745Z,93.4
2018-03-20T05:51:11.838Z,93.7
2018-03-20T05:52:13.575Z,93.8
2018-03-20T05:53:15.380Z,93.7
2018-03-20T05:54:17.336Z,93.7
2018-03-20T05:55:19.091Z,92.9
2018-03-20T05:56:20.992Z,92.9
2018-03-20T05:57:22.644Z,93.0
2018-03-20T05:58:24.423Z,93.0
2018-03-20T05:59:26.175Z,93.3
2018-03-20T06:00:28.373Z,93.0
2018-03-20T06:01:29.967Z,93.7
2018-03-20T06:02:32.075Z,93.6
2018-03-20T06:03:33.725Z,93.9
2018-03-20T06:04:35.302Z,93.9
2018-03-20T06:05:37.254Z,93.7
2018-03-20T06:06:39.033Z,93.5
2018-03-20T06:07:41.185Z,93.6
2018-03-20T06:08:43.106Z,93.5
2018-03-20T06:09:45.042Z,93.8
2018-03-20T06:10:47.095Z,94.1
2018-03-20T06:11:48.801Z,94.6
2018-03-20T06:12:50.680Z,94.3
2018-03-20T06:13:52.809Z,94.3
2018-03-20T06:14:54.379Z,94.3
2018-03-20T06:15:56.520Z,94.6
2018-03-20T06:16:58.138Z,94.0
2018-03-20T06:18:00.059Z,93.6
2018-03-20T06:19:01.653Z,93.6
2018-03-20T06:20:03.266Z,93.7
2018-03-20T06:21:05.291Z,93.6
2018-03-20T06:22:07.024Z,93.2
2018-03-20T06:23:08.644Z,93.2
2018-03-20T06:24:10.149Z,92.9
2018-03-20T06:25:11.897Z,92.5
2018-03-20T06:26:14.039Z,93.3
2018-03-20T06:27:15.742Z,92.6
2018-03-20T06:28:17.555Z,92.8
2018-03-20T06:29:19.377Z,92.6
2018-03-20T06:30:21.091Z,92.5
2018-03-20T06:31:22.818Z,92.4
2018-03-20T06:32:24.846Z,92.6
2018-03-20T06:33:26.647Z,92.8
2018-03-20T06:34:28.651Z,92.8
2018-03-20T06:35:30.622Z,92.8
2018-03-20T06:36:32.115Z,92.4
2018-03-20T06:37:33.887Z,92.0
2018-03-20T06:38:35.989Z,92.1
2018-03-20T06:39:37.730Z,91.7
2018-03-20T06:40:39.450Z,92.2
2018-03-20T06:41:40.956Z,92.1
2018-03-20T06:42:42.863Z,92.4
2018-03-20T06:43:44.543Z,92.6
2018-03-20T06:44:46.430Z,92.8
2018-03-20T06:45:48.252Z,92.6
2018-03-20T06:46:49.748Z,92.3
2018-03-20T06:47:51.510Z,92.6
2018-03-20T06:48:53.014Z,92.9
2018-03-20T06:49:54.677Z,93.0
2018-03-20T06:50:56.450Z,93.0
2018-03-20T06:51:58.131Z,93.0
2018-03-20T06:52:59.605Z,93.0
2018-03-20T06:54:01.612Z,92.9
2018-03-20T06:55:03.903Z,93.3
2018-03-20T06:56:05.343Z,92.9
2018-03-20T06:57:07.432Z,92.9
2018-03-20T06:58:09.463Z,93.6
2018-03-20T06:59:11.198Z,93.8
2018-03-20T07:00:12.865Z,93.7
2018-03-20T07:01:14.916Z,93.6
2018-03-20T07:02:16.785Z,93.6
2018-03-20T07:03:18.583Z,94.0
2018-03-20T07:04:20.811Z,94.1
2018-03-20T07:05:22.952Z,94.3
2018-03-20T07:06:24.828Z,94.4
2018-03-20T07:07:27.578Z,94.5
2018-03-20T07:08:29.405Z,94.5
2018-03-20T07:09:31.172Z,94.6
2018-03-20T07:10:32.974Z,94.0
2018-03-20T07:11:35.134Z,93.9
2018-03-20T07:12:37.014Z,94.1
2018-03-20T07:13:38.560Z,94.3
2018-03-20T07:14:40.548Z,94.7
2018-03-20T07:15:42.611Z,95.2
2018-03-20T07:16:44.883Z,95.0
2018-03-20T07:17:46.366Z,95.0
2018-03-20T07:18:48.041Z,95.4
2018-03-20T07:19:49.918Z,95.6
2018-03-20T07:20:51.827Z,95.6
2018-03-20T07:21:53.607Z,96.2
2018-03-20T07:22:55.336Z,95.7
2018-03-20T07:23:56.999Z,95.6
2018-03-20T07:24:58.940Z,95.3
2018-03-20T07:26:00.738Z,96.1
2018-03-20T07:27:02.745Z,96.1
2018-03-20T07:28:04.436Z,96.1
2018-03-20T07:29:06.110Z,96.1
2018-03-20T07:30:07.702Z,96.3
2018-03-20T07:31:09.634Z,96.0
2018-03-20T07:32:11.294Z,96.0
2018-03-20T07:33:12.785Z,96.6
2018-03-20T07:34:14.560Z,96.6
2018-03-20T07:35:16.767Z,96.1
2018-03-20T07:36:18.846Z,96.3
2018-03-20T07:37:20.539Z,95.7
2018-03-20T07:38:22.176Z,95.5
2018-03-20T07:39:24.264Z,95.1
2018-03-20T07:40:26.828Z,95.0
2018-03-20T07:41:28.665Z,95.2
2018-03-20T07:42:30.406Z,94.9
2018-03-20T07:43:32.223Z,94.5
2018-03-20T07:44:33.986Z,94.6
2018-03-20T07:45:36.129Z,94.6
2018-03-20T07:46:38.438Z,94.8
2018-03-20T07:47:40.145Z,93.8
2018-03-20T07:48:42.703Z,93.6
2018-03-20T07:49:44.442Z,93.1
2018-03-20T07:50:46.408Z,93.0
2018-03-20T07:51:48.417Z,92.9
2018-03-20T07:52:50.085Z,92.9
2018-03-20T07:53:52.005Z,93.2
2018-03-20T07:54:53.907Z,93.0
2018-03-20T07:55:55.771Z,93.0
2018-03-20T07:56:57.953Z,92.6
2018-03-20T07:57:59.640Z,93.0
2018-03-20T07:59:01.158Z,92.7
2018-03-20T08:00:02.735Z,93.4
2018-03-20T08:01:04.236Z,93.9
2018-03-20T08:02:05.858Z,92.9
2018-03-20T08:03:07.316Z,93.9
2018-03-20T08:04:08.947Z,94.0
2018-03-20T08:05:10.620Z,94.0
2018-03-20T08:06:12.034Z,94.0
2018-03-20T08:07:13.535Z,93.9
2018-03-20T08:08:15.312Z,93.6
2018-03-20T08:09:16.850Z,93.7
2018-03-20T08:10:18.597Z,93.8
2018-03-20T08:11:20.375Z,93.6
2018-03-20T08:12:22.118Z,93.8
2018-03-20T08:13:23.754Z,93.2
2018-03-20T08:14:25.693Z,93.0
2018-03-20T08:15:27.869Z,93.5
2018-03-20T08:16:29.807Z,93.2
2018-03-20T08:17:31.430Z,92.4
2018-03-20T08:18:33.382Z,92.5
2018-03-20T08:19:35.161Z,92.4
2018-03-20T08:20:37.246Z,92.2
2018-03-20T08:21:39.509Z,91.8
2018-03-20T08:22:41.197Z,91.7
2018-03-20T08:23:42.934Z,91.8
2018-03-20T08:24:44.739Z,91.5
2018-03-20T08:25:46.757Z,91.2
2018-03-20T08:26:48.706Z,91.1
2018-03-20T08:27:50.519Z,90.9
2018-03-20T08:28:52.523Z,90.9
2018-03-20T08:29:54.666Z,90.8
2018-03-20T08:30:56.345Z,91.0
2018-03-20T08:31:58.128Z,91.0
2018-03-20T08:32:59.738Z,90.7
2018-03-20T08:34:01.659Z,91.1
2018-03-20T08:35:03.819Z,90.7
2018-03-20T08:36:05.405Z,89.6
2018-03-20T08:37:06.915Z,89.9
2018-03-20T08:38:09.087Z,89.8
2018-03-20T08:39:10.695Z,89.2
2018-03-20T08:40:12.783Z,89.3
2018-03-20T08:41:14.529Z,88.6
2018-03-20T08:42:16.164Z,88.8
2018-03-20T08:43:18.250Z,88.3
2018-03-20T08:44:20.071Z,87.7
2018-03-20T08:45:21.690Z,87.9
2018-03-20T08:46:23.451Z,87.8
2018-03-20T08:47:24.965Z,86.7
2018-03-20T08:48:26.731Z,86.5
2018-03-20T08:49:28.372Z,85.4
2018-03-20T08:50:30.347Z,85.1
2018-03-20T08:51:32.085Z,85.0
2018-03-20T08:52:33.703Z,84.6
2018-03-20T08:53:35.453Z,84.6
2018-03-20T08:54:37.267Z,84.2
2018-03-20T08:55:39.185Z,83.1
2018-03-20T08:56:40.773Z,82.1
2018-03-20T08:57:42.617Z,82.0
2018-03-20T08:58:44.331Z,81.6
2018-03-20T08:59:46.063Z,80.7
2018-03-20T09:00:47.881Z,79.1
2018-03-20T09:01:49.488Z,78.1
2018-03-20T09:02:51.210Z,78.3
2018-03-20T09:03:52.954Z,77.1
2018-03-20T09:04:54.807Z,76.2
2018-03-20T09:05:56.479Z,75.3
2018-03-20T09:06:58.254Z,74.4
2018-03-20T09:07:59.998Z,73.2
2018-03-20T09:09:01.775Z,71.9
2018-03-20T09:10:03.517Z,71.2
2018-03-20T09:11:05.206Z,70.5
2018-03-20T09:12:06.862Z,70.5
2018-03-20T09:13:08.622Z,69.8
2018-03-20T09:14:10.358Z,69.0
2018-03-20T09:15:12.027Z,69.7
2018-03-20T09:16:13.626Z,69.9
2018-03-20T09:17:15.377Z,70.3
2018-03-20T09:18:17.047Z,69.9
2018-03-20T09:19:18.554Z,69.1
2018-03-20T09:20:20.287Z,67.9
2018-03-20T09:21:22.177Z,67.4
2018-03-20T09:22:23.733Z,67.4
2018-03-20T09:23:25.430Z,67.3
2018-03-20T09:24:27.126Z,66.3
2018-03-20T09:25:28.894Z,66.2
2018-03-20T09:26:30.636Z,64.7
2018-03-20T09:27:32.447Z,64.0
2018-03-20T09:28:34.014Z,63.2
2018-03-20T09:29:35.890Z,61.9
2018-03-20T09:30:37.846Z,62.0
2018-03-20T09:31:39.679Z,61.5
2018-03-20T09:32:41.312Z,59.9
2018-03-20T09:33:42.892Z,61.2
2018-03-20T09:34:44.815Z,60.8
2018-03-20T09:35:46.650Z,60.8
2018-03-20T09:36:48.631Z,61.4
2018-03-20T09:37:50.613Z,61.2
2018-03-20T09:38:52.316Z,61.2
2018-03-20T09:39:53.977Z,60.3
2018-03-20T09:40:55.623Z,60.5
2018-03-20T09:41:57.262Z,61.1
2018-03-20T09:42:59.094Z,61.3
2018-03-20T09:44:01.154Z,61.8
2018-03-20T09:45:03.080Z,61.5
2018-03-20T09:46:05.170Z,60.2
2018-03-20T09:47:06.733Z,60.4
2018-03-20T09:48:08.916Z,59.4
2018-03-20T09:49:10.751Z,59.0
2018-03-20T09:50:12.469Z,58.0
2018-03-20T09:51:14.107Z,56.4
2018-03-20T09:52:15.765Z,55.7
2018-03-20T09:53:17.347Z,55.4
2018-03-20T09:54:19.338Z,55.6
2018-03-20T09:55:21.448Z,53.0
2018-03-20T09:56:23.277Z,52.4
2018-03-20T09:57:25.041Z,51.5
2018-03-20T09:58:26.630Z,50.9
2018-03-20T09:59:28.474Z,50.6
2018-03-20T10:00:30.251Z,52.0
2018-03-20T10:01:31.879Z,52.7
2018-03-20T10:02:33.716Z,52.9
2018-03-20T10:03:35.484Z,52.9
2018-03-20T10:04:37.116Z,53.1
2018-03-20T10:05:38.883Z,53.7
2018-03-20T10:06:40.501Z,53.9
2018-03-20T10:07:42.317Z,53.4
2018-03-20T10:08:44.010Z,54.1
2018-03-20T10:09:45.703Z,53.6
2018-03-20T10:10:47.338Z,53.1
2018-03-20T10:11:48.995Z,52.9
2018-03-20T10:12:50.652Z,51.5
2018-03-20T10:13:52.494Z,50.3
2018-03-20T10:14:54.218Z,50.4
2018-03-20T10:15:56.181Z,51.5
2018-03-20T10:16:57.888Z,51.9
2018-03-20T10:17:59.796Z,52.0
2018-03-20T10:19:01.394Z,52.1
2018-03-20T10:20:03.047Z,51.8
2018-03-20T10:21:04.644Z,51.3
2018-03-20T10:22:06.282Z,50.2
2018-03-20T10:23:08.188Z,49.8
2018-03-20T10:24:10.008Z,49.7
2018-03-20T10:25:11.581Z,49.5
2018-03-20T10:26:13.308Z,49.9
2018-03-20T10:27:15.188Z,49.3
2018-03-20T10:28:16.920Z,47.5
2018-03-20T10:29:18.662Z,46.1
2018-03-20T10:30:20.321Z,45.6
2018-03-20T10:31:21.961Z,45.4
2018-03-20T10:32:23.616Z,45.5
2018-03-20T10:33:25.249Z,43.8
2018-03-20T10:34:27.234Z,43.9
2018-03-20T10:35:28.875Z,44.2
2018-03-20T10:36:30.531Z,44.1
2018-03-20T10:37:32.598Z,44.1
2018-03-20T10:38:34.406Z,43.9
2018-03-20T10:39:35.953Z,44.5
2018-03-20T10:40:37.786Z,43.9
2018-03-20T10:41:39.708Z,43.8
2018-03-20T10:42:41.378Z,42.7
2018-03-20T10:43:43.452Z,43.4
2018-03-20T10:44:45.047Z,43.5
2018-03-20T10:45:46.656Z,43.9
2018-03-20T10:46:48.534Z,43.3
2018-03-20T10:47:50.207Z,43.4
2018-03-20T10:48:51.924Z,43.4
2018-03-20T10:49:53.455Z,43.4
2018-03-20T10:50:55.233Z,44.0
2018-03-20T10:51:57.129Z,44.1
2018-03-20T10:52:58.737Z,43.0
2018-03-20T10:54:00.339Z,42.3
2018-03-20T10:55:02.106Z,40.9
2018-03-20T10:56:03.779Z,40.8
2018-03-20T10:57:05.356Z,39.5
2018-03-20T10:58:07.170Z,39.2
2018-03-20T10:59:08.982Z,39.0
2018-03-20T11:00:10.816Z,38.3
2018-03-20T11:01:12.717Z,38.6
2018-03-20T11:02:14.441Z,39.4
2018-03-20T11:03:16.144Z,41.5
2018-03-20T11:04:18.063Z,41.5
2018-03-20T11:05:19.869Z,41.4
2018-03-20T11:06:21.472Z,41.1
2018-03-20T11:07:23.130Z,40.5
2018-03-20T11:08:25.127Z,40.2
2018-03-20T11:09:26.706Z,40.6
2018-03-20T11:10:28.290Z,40.5
2018-03-20T11:11:30.039Z,41.1
2018-03-20T11:12:31.734Z,41.2
2018-03-20T11:13:33.430Z,42.3
2018-03-20T11:14:35.100Z,43.2
2018-03-20T11:15:36.650Z,43.7
2018-03-20T11:16:38.410Z,45.4
2018-03-20T11:17:40.162Z,45.6
2018-03-20T11:18:41.891Z,45.8
2018-03-20T11:19:43.528Z,45.1
2018-03-20T11:20:45.205Z,42.5
2018-03-20T11:21:46.768Z,42.3
2018-03-20T11:22:48.588Z,42.6
2018-03-20T11:23:50.210Z,41.0
2018-03-20T11:24:51.773Z,41.8
2018-03-20T11:25:53.481Z,41.3
2018-03-20T11:26:55.133Z,40.1
2018-03-20T11:27:56.827Z,38.9
2018-03-20T11:28:58.514Z,39.0
2018-03-20T11:30:00.364Z,38.8
2018-03-20T11:31:02.065Z,37.2
2018-03-20T11:32:03.696Z,36.1
2018-03-20T11:33:05.537Z,35.9
2018-03-20T11:34:07.247Z,36.2
2018-03-20T11:35:09.062Z,35.8
2018-03-20T11:36:10.875Z,35.8
2018-03-20T11:37:12.647Z,35.4
2018-03-20T11:38:14.341Z,35.5
2018-03-20T11:39:16.079Z,34.8
2018-03-20T11:40:17.886Z,34.7
2018-03-20T11:41:19.929Z,33.4
2018-03-20T11:42:21.500Z,33.5
2018-03-20T11:43:23.304Z,33.0
2018-03-20T11:44:24.938Z,31.6
2018-03-20T11:45:26.713Z,31.1
2018-03-20T11:46:28.421Z,31.2
2018-03-20T11:47:30.101Z,31.1
2018-03-20T11:48:31.842Z,31.6
2018-03-20T11:49:33.499Z,31.0
2018-03-20T11:50:35.292Z,30.6
2018-03-20T11:51:36.826Z,30.5
2018-03-20T11:52:38.529Z,30.3
2018-03-20T11:53:40.114Z,30.8
2018-03-20T11:54:41.867Z,31.4
2018-03-20T11:55:43.552Z,31.9
2018-03-20T11:56:45.226Z,32.9
2018-03-20T11:57:46.925Z,33.5
2018-03-20T11:58:48.608Z,34.7
2018-03-20T11:59:50.369Z,35.7
2018-03-20T12:00:51.988Z,35.3
2018-03-20T12:01:53.760Z,36.0
2018-03-20T12:02:55.725Z,36.1
2018-03-20T12:03:57.667Z,36.3
2018-03-20T12:04:59.423Z,36.3
2018-03-20T12:06:01.093Z,36.0
2018-03-20T12:07:02.764Z,34.9
2018-03-20T12:08:04.459Z,34.6
2018-03-20T12:09:06.204Z,33.7
2018-03-20T12:10:07.819Z,33.3
2018-03-20T12:11:09.713Z,33.3
2018-03-20T12:12:11.575Z,33.0
2018-03-20T12:13:13.200Z,31.5
2018-03-20T12:14:14.995Z,31.6
2018-03-20T12:15:16.589Z,31.3
2018-03-20T12:16:18.398Z,30.3
2018-03-20T12:17:20.018Z,30.0
2018-03-20T12:18:21.636Z,30.0
2018-03-20T12:19:23.539Z,30.4
2018-03-20T12:20:25.740Z,29.9
2018-03-20T12:21:27.467Z,29.9
2018-03-20T12:22:29.181Z,30.0
2018-03-20T12:23:30.890Z,29.2
2018-03-20T12:24:32.504Z,29.2
2018-03-20T12:25:34.236Z,29.5
2018-03-20T12:26:35.815Z,29.4
2018-03-20T12:27:37.665Z,29.8
2018-03-20T12:28:39.223Z,29.9
2018-03-20T12:29:40.740Z,29.6
2018-03-20T12:30:42.353Z,29.4
2018-03-20T12:31:44.329Z,29.2
2018-03-20T12:32:45.983Z,29.2
2018-03-20T12:33:47.572Z,29.3
2018-03-20T12:34:49.275Z,28.5
2018-03-20T12:35:50.882Z,28.5
2018-03-20T12:36:52.487Z,28.8
2018-03-20T12:37:54.133Z,28.1
2018-03-20T12:38:55.846Z,28.4
2018-03-20T12:39:57.623Z,28.4
2018-03-20T12:40:59.427Z,28.7
2018-03-20T12:42:01.082Z,28.4
2018-03-20T12:43:02.712Z,26.8
2018-03-20T12:44:04.551Z,27.4
2018-03-20T12:45:06.427Z,28.1
2018-03-20T12:46:08.258Z,26.9
2018-03-20T12:47:10.099Z,26.7
2018-03-20T12:48:11.891Z,27.1
2018-03-20T12:49:13.537Z,27.3
2018-03-20T12:50:15.151Z,26.9
2018-03-20T12:51:16.934Z,26.6
2018-03-20T12:52:18.514Z,26.9
2018-03-20T12:53:20.237Z,26.5
2018-03-20T12:54:22.042Z,26.2
2018-03-20T12:55:23.840Z,26.8
2018-03-20T12:56:25.432Z,26.8
2018-03-20T12:57:27.287Z,27.3
2018-03-20T12:58:29.142Z,27.6
2018-03-20T12:59:30.926Z,25.9
2018-03-20T13:00:32.885Z,25.6
2018-03-20T13:01:34.691Z,25.3
2018-03-20T13:02:36.398Z,25.5
2018-03-20T13:03:38.211Z,25.5
2018-03-20T13:04:39.849Z,26.0
2018-03-20T13:05:41.542Z,26.0
2018-03-20T13:06:43.061Z,26.4
2018-03-20T13:07:44.718Z,26.7
2018-03-20T13:08:46.681Z,27.0
2018-03-20T13:09:48.414Z,26.3
2018-03-20T13:10:50.559Z,25.2
2018-03-20T13:11:52.321Z,25.0
2018-03-20T13:12:54.005Z,24.4
2018-03-20T13:13:55.811Z,24.4
2018-03-20T13:14:57.522Z,23.8
2018-03-20T13:15:59.235Z,24.4
2018-03-20T13:17:01.033Z,25.0
2018-03-20T13:18:02.654Z,24.6
2018-03-20T13:19:04.413Z,24.1
2018-03-20T13:20:05.948Z,23.3
2018-03-20T13:21:07.676Z,24.0
2018-03-20T13:22:09.658Z,24.2
2018-03-20T13:23:11.308Z,24.3
2018-03-20T13:24:12.906Z,25.1
2018-03-20T13:25:14.431Z,25.0
2018-03-20T13:26:16.174Z,24.0
2018-03-20T13:27:17.982Z,24.1
2018-03-20T13:28:19.762Z,25.2
2018-03-20T13:29:21.353Z,25.3
2018-03-20T13:30:22.954Z,26.4
2018-03-20T13:31:24.792Z,26.8
2018-03-20T13:32:27.548Z,26.9
2018-03-20T13:33:29.077Z,27.1
2018-03-20T13:34:30.896Z,26.9
2018-03-20T13:35:32.486Z,25.3
2018-03-20T13:36:34.397Z,24.1
2018-03-20T13:37:36.133Z,24.7
2018-03-20T13:38:37.784Z,24.4
2018-03-20T13:39:39.505Z,24.1
2018-03-20T13:40:41.187Z,24.4
2018-03-20T13:41:43.169Z,24.5
2018-03-20T13:42:44.947Z,24.4